createdAt,value
2022-07-30T00:00:46.997Z,99.18
2022-07-30T00:03:13.448Z,99.60
2022-07-30T00:05:39.904Z,99.89
2022-07-30T00:08:06.351Z,100.00
2022-07-30T00:10:32.926Z,100.00
2022-07-30T00:12:59.483Z,100.00
2022-07-30T00:15:25.950Z,100.00
2022-07-30T00:17:52.431Z,100.00
2022-07-30T00:20:19.030Z,100.00
2022-07-30T00:22:45.657Z,100.00
2022-07-30T00:25:12.201Z,100.00
2022-07-30T00:27:38.883Z,100.00
2022-07-30T00:30:06.012Z,100.00
2022-07-30T00:32:32.550Z,100.00
2022-07-30T00:34:58.932Z,100.00
2022-07-30T00:37:25.401Z,100.00
2022-07-30T00:39:52.087Z,100.00
2022-07-30T00:42:25.488Z,100.00
2022-07-30T00:44:53.043Z,100.00
2022-07-30T00:47:20.056Z,100.00
2022-07-30T00:49:46.832Z,100.00
2022-07-30T00:52:13.401Z,100.00
2022-07-30T00:54:39.913Z,100.00
2022-07-30T00:57:06.340Z,100.00
2022-07-30T00:59:33.564Z,100.00
2022-07-30T01:02:01.697Z,100.00
2022-07-30T01:04:28.359Z,100.00
2022-07-30T01:06:54.794Z,100.00
2022-07-30T01:09:21.266Z,100.00
2022-07-30T01:11:48.018Z,100.00
2022-07-30T01:14:14.603Z,100.00
2022-07-30T01:16:43.194Z,100.00
2022-07-30T01:19:41.738Z,100.00
2022-07-30T01:22:43.985Z,100.00
2022-07-30T01:25:27.537Z,100.00
2022-07-30T01:28:06.332Z,100.00
2022-07-30T01:30:35.911Z,100.00
2022-07-30T01:33:04.559Z,100.00
2022-07-30T01:35:33.064Z,100.00
2022-07-30T01:38:01.776Z,100.00
2022-07-30T01:40:29.416Z,100.00
2022-07-30T01:42:58.671Z,100.00
2022-07-30T01:45:28.255Z,100.00
2022-07-30T01:47:58.095Z,100.00
2022-07-30T01:50:25.417Z,100.00
2022-07-30T01:52:54.958Z,100.00
2022-07-30T01:55:27.124Z,100.00
2022-07-30T01:57:55.846Z,100.00
2022-07-30T02:00:24.502Z,100.00
2022-07-30T02:02:50.935Z,100.00
2022-07-30T02:05:17.432Z,100.00
2022-07-30T02:07:59.088Z,100.00
2022-07-30T02:10:36.770Z,100.00
2022-07-30T02:13:06.607Z,100.00
2022-07-30T02:15:44.486Z,100.00
2022-07-30T02:18:23.820Z,100.00
2022-07-30T02:21:13.226Z,100.00
2022-07-30T02:23:44.071Z,100.00
2022-07-30T02:26:18.446Z,100.00
2022-07-30T02:28:49.553Z,100.00
2022-07-30T02:31:19.193Z,100.00
2022-07-30T02:33:49.563Z,100.00
2022-07-30T02:36:18.719Z,100.00
2022-07-30T02:38:47.239Z,100.00
2022-07-30T02:41:15.120Z,100.00
2022-07-30T02:43:42.842Z,100.00
2022-07-30T02:46:12.739Z,100.00
2022-07-30T02:48:41.157Z,100.00
2022-07-30T02:51:08.635Z,100.00
2022-07-30T02:53:36.643Z,100.00
2022-07-30T02:56:07.539Z,100.00
2022-07-30T02:58:35.683Z,100.00
2022-07-30T03:01:03.104Z,100.00
2022-07-30T03:03:30.713Z,100.00
2022-07-30T03:05:59.583Z,100.00
2022-07-30T03:08:31.459Z,100.00
2022-07-30T03:10:58.166Z,100.00
2022-07-30T03:13:25.487Z,100.00
2022-07-30T03:15:53.757Z,100.00
2022-07-30T03:18:22.295Z,100.00
2022-07-30T03:20:56.108Z,100.00
2022-07-30T03:23:24.191Z,100.00
2022-07-30T03:26:02.126Z,100.00
2022-07-30T03:28:31.741Z,100.00
2022-07-30T03:30:58.575Z,100.00
2022-07-30T03:33:38.200Z,100.00
2022-07-30T03:36:06.988Z,100.00
2022-07-30T03:38:36.725Z,100.00
2022-07-30T03:41:04.601Z,100.00
2022-07-30T03:43:32.702Z,100.00
2022-07-30T03:46:02.739Z,100.00
2022-07-30T03:48:29.481Z,100.00
2022-07-30T03:50:56.247Z,100.00
2022-07-30T03:53:27.551Z,100.00
2022-07-30T03:55:54.857Z,100.00
2022-07-30T03:58:21.700Z,100.00
2022-07-30T04:00:50.555Z,100.00
2022-07-30T04:03:27.782Z,100.00
2022-07-30T04:05:54.454Z,100.00
2022-07-30T04:08:20.974Z,100.00
2022-07-30T04:10:48.888Z,100.00
2022-07-30T04:13:15.857Z,100.00
2022-07-30T04:16:05.704Z,100.00
2022-07-30T04:18:50.119Z,100.00
2022-07-30T04:21:19.076Z,100.00
2022-07-30T04:24:02.837Z,100.00
2022-07-30T04:26:33.838Z,100.00
2022-07-30T04:29:02.454Z,100.00
2022-07-30T04:31:29.683Z,100.00
2022-07-30T04:33:58.887Z,100.00
2022-07-30T04:36:32.670Z,100.00
2022-07-30T04:39:00.197Z,100.00
2022-07-30T04:41:26.669Z,100.00
2022-07-30T04:43:53.072Z,100.00
2022-07-30T04:46:19.596Z,100.00
2022-07-30T04:48:48.315Z,100.00
2022-07-30T04:51:31.923Z,100.00
2022-07-30T04:53:59.557Z,100.00
2022-07-30T04:56:26.448Z,100.00
2022-07-30T04:58:54.696Z,100.00
2022-07-30T05:01:34.140Z,100.00
2022-07-30T05:04:10.071Z,100.00
2022-07-30T05:06:38.525Z,100.00
2022-07-30T05:09:06.195Z,100.00
2022-07-30T05:11:32.615Z,100.00
2022-07-30T05:13:59.055Z,100.00
2022-07-30T05:16:25.760Z,100.00
2022-07-30T05:18:52.179Z,100.00
2022-07-30T05:21:18.698Z,100.00
2022-07-30T05:23:50.601Z,100.00
2022-07-30T05:26:21.596Z,100.00
2022-07-30T05:28:53.588Z,100.00
2022-07-30T05:31:22.037Z,100.00
2022-07-30T05:33:48.517Z,100.00
2022-07-30T05:36:15.018Z,100.00
2022-07-30T05:38:41.530Z,100.00
2022-07-30T05:41:19.177Z,100.00
2022-07-30T05:43:55.833Z,100.00
2022-07-30T05:46:23.260Z,100.00
2022-07-30T05:48:49.927Z,100.00
2022-07-30T05:51:16.900Z,100.00
2022-07-30T05:53:43.401Z,100.00
2022-07-30T05:56:09.901Z,100.00
2022-07-30T05:58:36.609Z,100.00
2022-07-30T06:01:03.061Z,100.00
2022-07-30T06:03:29.492Z,100.00
2022-07-30T06:05:55.982Z,100.00
2022-07-30T06:08:22.439Z,100.00
2022-07-30T06:10:48.866Z,100.00
2022-07-30T06:13:15.283Z,100.00
2022-07-30T06:15:41.749Z,100.00
2022-07-30T06:18:08.258Z,100.00
2022-07-30T06:20:35.226Z,100.00
2022-07-30T06:23:01.873Z,100.00
2022-07-30T06:25:28.298Z,100.00
2022-07-30T06:27:54.735Z,100.00
2022-07-30T06:30:21.248Z,100.00
2022-07-30T06:32:57.760Z,100.00
2022-07-30T06:35:24.189Z,100.00
2022-07-30T06:37:59.595Z,100.00
2022-07-30T06:40:34.140Z,100.00
2022-07-30T06:43:00.687Z,100.00
2022-07-30T06:45:27.161Z,100.00
2022-07-30T06:47:59.129Z,100.00
2022-07-30T06:50:27.641Z,100.00
2022-07-30T06:52:54.144Z,100.00
2022-07-30T06:55:20.539Z,100.00
2022-07-30T06:57:47.013Z,100.00
2022-07-30T07:00:13.908Z,100.00
2022-07-30T07:02:42.600Z,100.00
2022-07-30T07:05:09.595Z,100.00
2022-07-30T07:07:41.834Z,100.00
2022-07-30T07:10:09.099Z,100.00
2022-07-30T07:12:35.527Z,100.00
2022-07-30T07:15:03.762Z,100.00
2022-07-30T07:17:30.307Z,100.00
2022-07-30T07:20:01.471Z,100.00
2022-07-30T07:22:28.812Z,100.00
2022-07-30T07:24:56.572Z,100.00
2022-07-30T07:27:23.189Z,100.00
2022-07-30T07:30:04.429Z,100.00
2022-07-30T07:32:32.457Z,100.00
2022-07-30T07:35:00.027Z,100.00
2022-07-30T07:37:26.531Z,100.00
2022-07-30T07:39:53.088Z,100.00
2022-07-30T07:42:19.533Z,100.00
2022-07-30T07:44:45.950Z,100.00
2022-07-30T07:47:12.397Z,100.00
2022-07-30T07:49:47.887Z,100.00
2022-07-30T07:52:14.307Z,100.00
2022-07-30T07:54:40.805Z,100.00
2022-07-30T07:57:08.028Z,100.00
2022-07-30T07:59:40.615Z,100.00
2022-07-30T08:02:08.587Z,100.00
2022-07-30T08:04:35.981Z,100.00
2022-07-30T08:07:03.145Z,100.00
2022-07-30T08:09:44.290Z,100.00
2022-07-30T08:12:12.330Z,100.00
2022-07-30T08:14:39.113Z,100.00
2022-07-30T08:17:06.226Z,100.00
2022-07-30T08:19:33.102Z,100.00
2022-07-30T08:21:59.651Z,100.00
2022-07-30T08:24:27.204Z,100.00
2022-07-30T08:26:53.773Z,100.00
2022-07-30T08:29:20.301Z,100.00
2022-07-30T08:31:46.728Z,100.00
2022-07-30T08:34:13.686Z,100.00
2022-07-30T08:36:41.029Z,100.00
2022-07-30T08:39:07.790Z,100.00
2022-07-30T08:41:36.323Z,100.00
2022-07-30T08:44:03.852Z,100.00
2022-07-30T08:46:32.130Z,99.86
2022-07-30T08:49:00.543Z,98.88
2022-07-30T08:51:35.917Z,96.64
2022-07-30T08:54:03.720Z,95.79
2022-07-30T08:56:31.932Z,94.45
2022-07-30T08:59:00.160Z,93.69
2022-07-30T09:01:26.784Z,91.33
2022-07-30T09:03:53.370Z,90.60
2022-07-30T09:06:19.907Z,89.75
2022-07-30T09:08:46.457Z,88.52
2022-07-30T09:11:12.928Z,86.97
2022-07-30T09:13:48.400Z,87.00
2022-07-30T09:16:26.036Z,80.50
2022-07-30T09:18:54.067Z,82.30
2022-07-30T09:21:26.490Z,77.78
2022-07-30T09:23:55.898Z,77.55
2022-07-30T09:26:22.321Z,78.19
2022-07-30T09:28:48.821Z,76.21
2022-07-30T09:31:16.709Z,73.50
2022-07-30T09:33:45.119Z,74.10
2022-07-30T09:36:16.464Z,73.80
2022-07-30T09:38:48.628Z,72.98
2022-07-30T09:41:37.654Z,72.13
2022-07-30T09:44:05.086Z,73.48
2022-07-30T09:46:47.614Z,69.25
2022-07-30T09:49:16.851Z,71.37
2022-07-30T09:51:56.044Z,70.62
2022-07-30T09:57:22.876Z,67.62
2022-07-30T09:59:54.962Z,67.22
2022-07-30T10:02:28.358Z,66.78
2022-07-30T10:04:54.938Z,66.95
2022-07-30T10:07:25.389Z,66.69
2022-07-30T10:09:53.345Z,66.93
2022-07-30T10:12:24.042Z,65.97
2022-07-30T10:14:53.648Z,66.06
2022-07-30T10:17:20.848Z,64.50
2022-07-30T10:19:48.942Z,64.56
2022-07-30T10:22:17.198Z,63.25
2022-07-30T10:24:45.736Z,62.23
2022-07-30T10:27:12.935Z,61.73
2022-07-30T10:29:42.662Z,59.83
2022-07-30T10:32:09.573Z,58.58
2022-07-30T10:34:38.172Z,56.96
2022-07-30T10:37:12.442Z,57.40
2022-07-30T10:39:47.090Z,55.16
2022-07-30T10:42:38.159Z,55.57
2022-07-30T10:45:36.991Z,54.23
2022-07-30T10:48:13.327Z,55.08
2022-07-30T10:50:54.410Z,47.96
2022-07-30T10:53:42.787Z,48.56
2022-07-30T10:56:15.227Z,47.80
2022-07-30T10:59:11.420Z,44.87
2022-07-30T11:02:00.658Z,45.90
2022-07-30T11:04:29.989Z,46.60
2022-07-30T11:07:30.236Z,40.87
2022-07-30T11:10:09.181Z,43.90
2022-07-30T11:12:42.281Z,38.95
2022-07-30T11:15:19.260Z,38.05
2022-07-30T11:18:12.174Z,37.79
2022-07-30T11:20:40.723Z,40.32
2022-07-30T11:23:10.697Z,39.80
2022-07-30T11:25:51.485Z,37.83
2022-07-30T11:28:40.800Z,34.62
2022-07-30T11:31:55.807Z,32.03
2022-07-30T11:34:19.795Z,36.04
2022-07-30T11:37:22.144Z,31.69
2022-07-30T11:39:58.310Z,34.44
2022-07-30T11:42:34.685Z,32.43
2022-07-30T11:45:16.610Z,29.54
2022-07-30T11:47:53.782Z,30.28
2022-07-30T11:50:26.238Z,30.23
2022-07-30T11:52:58.568Z,31.72
2022-07-30T11:55:27.699Z,32.02
2022-07-30T11:58:00.521Z,29.85
2022-07-30T12:00:34.933Z,28.78
2022-07-30T12:03:07.868Z,28.87
2022-07-30T12:05:34.447Z,30.91
2022-07-30T12:08:00.919Z,30.72
2022-07-30T12:10:27.651Z,30.23
2022-07-30T12:13:07.953Z,29.11
2022-07-30T12:15:37.399Z,29.56
2022-07-30T12:18:26.221Z,30.42
2022-07-30T12:20:54.827Z,29.21
2022-07-30T12:23:24.493Z,29.60
2022-07-30T12:25:51.712Z,29.59
2022-07-30T12:28:23.824Z,28.60
2022-07-30T12:30:52.092Z,28.39
2022-07-30T12:33:19.366Z,28.28
2022-07-30T12:35:48.140Z,27.74
2022-07-30T12:38:16.377Z,27.94
2022-07-30T12:41:03.567Z,27.67
2022-07-30T12:43:55.794Z,28.72
2022-07-30T12:46:27.177Z,28.48
2022-07-30T12:48:55.203Z,28.55
2022-07-30T12:51:24.365Z,28.64
2022-07-30T12:53:51.573Z,28.73
2022-07-30T12:56:20.930Z,28.69
2022-07-30T12:58:47.528Z,28.59
2022-07-30T13:01:15.620Z,28.63
2022-07-30T13:03:43.077Z,28.44
2022-07-30T13:06:25.649Z,27.53
2022-07-30T13:08:53.767Z,27.98
2022-07-30T13:11:22.442Z,27.04
2022-07-30T13:13:50.669Z,26.44
2022-07-30T13:16:18.519Z,26.12
2022-07-30T13:18:45.683Z,25.92
2022-07-30T13:21:13.425Z,26.30
2022-07-30T13:23:41.488Z,27.04
2022-07-30T13:26:08.940Z,27.33
2022-07-30T13:28:35.761Z,27.44
2022-07-30T13:31:02.707Z,27.35
2022-07-30T13:33:29.485Z,26.78
2022-07-30T13:35:55.894Z,26.38
2022-07-30T13:38:22.469Z,26.18
2022-07-30T13:40:49.054Z,26.49
2022-07-30T13:43:15.527Z,26.93
2022-07-30T13:45:42.233Z,26.58
2022-07-30T13:48:08.695Z,26.78
2022-07-30T13:50:35.520Z,26.82
2022-07-30T13:53:02.738Z,26.97
2022-07-30T13:55:29.823Z,27.84
2022-07-30T13:57:56.365Z,27.78
2022-07-30T14:00:23.108Z,27.99
2022-07-30T14:02:49.663Z,28.18
2022-07-30T14:05:16.186Z,28.10
2022-07-30T14:07:42.659Z,28.79
2022-07-30T14:10:09.360Z,29.03
2022-07-30T14:12:35.977Z,28.77
2022-07-30T14:15:02.573Z,28.82
2022-07-30T14:17:29.179Z,28.68
2022-07-30T14:19:56.014Z,28.86
2022-07-30T14:22:22.524Z,29.20
2022-07-30T14:24:49.074Z,28.99
2022-07-30T14:27:15.704Z,29.28
2022-07-30T14:29:42.141Z,28.86
2022-07-30T14:32:08.569Z,28.76
2022-07-30T14:34:35.007Z,28.34
2022-07-30T14:37:01.920Z,28.12
2022-07-30T14:39:28.620Z,28.14
2022-07-30T14:41:56.105Z,27.65
2022-07-30T14:44:23.298Z,27.23
2022-07-30T14:46:52.363Z,27.26
2022-07-30T14:49:28.693Z,27.22
2022-07-30T14:51:55.164Z,27.52
2022-07-30T14:54:22.531Z,27.79
2022-07-30T14:56:52.579Z,28.11
2022-07-30T14:59:21.391Z,27.87
2022-07-30T15:01:47.968Z,28.03
2022-07-30T15:04:14.920Z,28.02
2022-07-30T15:06:41.909Z,28.18
2022-07-30T15:09:09.165Z,27.94
2022-07-30T15:12:03.551Z,28.13
2022-07-30T15:14:22.951Z,27.69
2022-07-30T15:16:51.116Z,27.68
2022-07-30T15:19:17.558Z,27.47
2022-07-30T15:21:44.765Z,27.21
2022-07-30T15:24:11.271Z,26.92
2022-07-30T15:26:37.776Z,27.29
2022-07-30T15:29:04.220Z,27.26
2022-07-30T15:31:30.656Z,26.91
2022-07-30T15:33:57.084Z,27.31
2022-07-30T15:36:23.548Z,27.39
2022-07-30T15:38:49.954Z,27.52
2022-07-30T15:41:17.952Z,27.42
2022-07-30T15:43:44.525Z,27.02
2022-07-30T15:46:11.024Z,26.99
2022-07-30T15:48:37.812Z,26.84
2022-07-30T15:51:05.004Z,26.97
2022-07-30T15:53:32.351Z,26.75
2022-07-30T15:55:59.833Z,26.89
2022-07-30T15:58:26.441Z,26.71
2022-07-30T16:00:52.991Z,26.42
2022-07-30T16:03:19.506Z,26.45
2022-07-30T16:05:51.744Z,26.47
2022-07-30T16:08:20.230Z,26.05
2022-07-30T16:10:46.831Z,25.92
2022-07-30T16:13:13.328Z,25.81
2022-07-30T16:15:39.841Z,25.78
2022-07-30T16:18:06.408Z,25.50
2022-07-30T16:20:33.405Z,26.15
2022-07-30T16:22:59.860Z,25.96
2022-07-30T16:25:26.638Z,25.84
2022-07-30T16:27:53.260Z,26.34
2022-07-30T16:30:19.947Z,25.84
2022-07-30T16:32:46.378Z,25.77
2022-07-30T16:35:13.468Z,26.03
2022-07-30T16:37:40.049Z,26.09
2022-07-30T16:40:06.869Z,26.23
2022-07-30T16:42:33.304Z,26.55
2022-07-30T16:44:59.778Z,27.01
2022-07-30T16:47:26.320Z,27.49
2022-07-30T16:49:52.860Z,28.16
2022-07-30T16:52:19.540Z,28.56
2022-07-30T16:54:46.088Z,28.87
2022-07-30T16:57:12.792Z,29.05
2022-07-30T16:59:42.217Z,29.73
2022-07-30T17:02:10.472Z,29.77
2022-07-30T17:04:36.908Z,29.93
2022-07-30T17:07:03.312Z,30.07
2022-07-30T17:09:36.304Z,30.56
2022-07-30T17:12:05.357Z,30.89
2022-07-30T17:14:34.472Z,31.44
2022-07-30T17:17:00.976Z,31.45
2022-07-30T17:19:27.494Z,31.83
2022-07-30T17:21:53.932Z,31.99
2022-07-30T17:24:20.957Z,32.16
2022-07-30T17:26:47.340Z,32.47
2022-07-30T17:29:15.661Z,32.86
2022-07-30T17:31:44.198Z,32.63
2022-07-30T17:34:13.914Z,32.78
2022-07-30T17:36:42.952Z,32.83
2022-07-30T17:40:04.358Z,33.02
2022-07-30T17:42:05.211Z,33.06
2022-07-30T17:44:32.084Z,33.18
2022-07-30T17:46:59.007Z,33.45
2022-07-30T17:49:25.485Z,33.39
2022-07-30T17:51:51.933Z,33.50
2022-07-30T17:54:18.333Z,33.87
2022-07-30T17:56:44.965Z,33.96
2022-07-30T17:59:13.912Z,34.08
2022-07-30T18:01:40.668Z,33.61
2022-07-30T18:04:07.140Z,34.32
2022-07-30T18:06:33.786Z,34.54
2022-07-30T18:09:00.246Z,34.72
2022-07-30T18:11:26.680Z,34.65
2022-07-30T18:13:53.455Z,34.73
2022-07-30T18:16:19.848Z,34.94
2022-07-30T18:18:46.267Z,35.23
2022-07-30T18:21:12.714Z,35.71
2022-07-30T18:23:39.172Z,35.99
2022-07-30T18:26:05.761Z,36.33
2022-07-30T18:28:33.290Z,36.28
2022-07-30T18:30:59.721Z,36.41
2022-07-30T18:33:26.156Z,36.86
2022-07-30T18:35:52.602Z,36.86
2022-07-30T18:38:19.168Z,36.98
2022-07-30T18:40:57.450Z,37.24
2022-07-30T18:43:28.225Z,37.84
2022-07-30T18:45:55.890Z,38.04
2022-07-30T18:48:22.927Z,38.29
2022-07-30T18:50:49.638Z,38.65
2022-07-30T18:53:16.861Z,39.17
2022-07-30T18:55:44.000Z,39.66
2022-07-30T18:58:10.543Z,39.84
2022-07-30T19:00:37.496Z,39.93
2022-07-30T19:03:04.314Z,40.79
2022-07-30T19:05:31.006Z,41.38
2022-07-30T19:07:58.208Z,41.97
2022-07-30T19:10:26.549Z,42.51
2022-07-30T19:12:54.028Z,43.39
2022-07-30T19:15:20.535Z,43.73
2022-07-30T19:17:48.920Z,44.27
2022-07-30T19:20:15.516Z,44.73
2022-07-30T19:22:41.976Z,45.32
2022-07-30T19:25:09.081Z,45.61
2022-07-30T19:27:35.749Z,46.44
2022-07-30T19:30:03.720Z,46.65
2022-07-30T19:32:30.284Z,47.30
2022-07-30T19:34:56.752Z,47.77
2022-07-30T19:37:23.665Z,48.18
2022-07-30T19:39:58.877Z,49.21
2022-07-30T19:42:33.787Z,49.64
2022-07-30T19:45:01.343Z,50.08
2022-07-30T19:47:39.625Z,50.90
2022-07-30T19:50:09.998Z,51.30
2022-07-30T19:52:36.794Z,51.60
2022-07-30T19:55:17.262Z,52.24
2022-07-30T19:57:54.225Z,52.16
2022-07-30T20:00:24.912Z,52.60
2022-07-30T20:02:52.549Z,53.26
2022-07-30T20:05:19.492Z,53.47
2022-07-30T20:07:47.103Z,53.59
2022-07-30T20:10:15.685Z,53.93
2022-07-30T20:12:42.917Z,54.13
2022-07-30T20:15:16.164Z,54.94
2022-07-30T20:17:42.606Z,55.33
2022-07-30T20:20:10.459Z,55.93
2022-07-30T20:22:36.888Z,56.16
2022-07-30T20:25:06.411Z,56.68
2022-07-30T20:27:36.094Z,56.82
2022-07-30T20:30:04.818Z,57.54
2022-07-30T20:32:31.317Z,57.16
2022-07-30T20:34:58.399Z,57.74
2022-07-30T20:37:27.372Z,58.56
2022-07-30T20:39:54.779Z,58.88
2022-07-30T20:42:21.755Z,59.42
2022-07-30T20:44:51.234Z,58.96
2022-07-30T20:47:34.243Z,59.25
2022-07-30T20:50:02.027Z,60.03
2022-07-30T20:52:28.455Z,60.37
2022-07-30T20:54:55.963Z,60.90
2022-07-30T20:57:56.754Z,60.86
2022-07-30T21:00:09.568Z,61.51
2022-07-30T21:02:36.083Z,61.87
2022-07-30T21:05:04.905Z,62.62
2022-07-30T21:07:36.429Z,62.79
2022-07-30T21:10:04.568Z,63.30
2022-07-30T21:12:33.696Z,63.90
2022-07-30T21:15:00.553Z,63.30
2022-07-30T21:17:27.030Z,63.59
2022-07-30T21:19:54.772Z,63.64
2022-07-30T21:22:22.106Z,63.95
2022-07-30T21:24:50.475Z,64.23
2022-07-30T21:27:16.918Z,64.84
2022-07-30T21:29:45.529Z,65.32
2022-07-30T21:32:12.260Z,65.51
2022-07-30T21:34:40.513Z,65.29
2022-07-30T21:37:08.907Z,65.34
2022-07-30T21:39:39.765Z,65.26
2022-07-30T21:42:08.502Z,65.03
2022-07-30T21:44:35.609Z,64.83
2022-07-30T21:47:02.049Z,64.70
2022-07-30T21:49:29.216Z,64.66
2022-07-30T21:51:58.084Z,64.81
2022-07-30T21:54:29.397Z,64.71
2022-07-30T21:56:58.266Z,64.43
2022-07-30T21:59:25.100Z,64.75
2022-07-30T22:01:55.183Z,65.21
2022-07-30T22:04:21.836Z,65.03
2022-07-30T22:06:48.294Z,65.21
2022-07-30T22:09:19.375Z,65.96
2022-07-30T22:12:00.679Z,66.60
2022-07-30T22:14:28.085Z,66.20
2022-07-30T22:16:55.418Z,66.69
2022-07-30T22:19:21.910Z,67.19
2022-07-30T22:21:51.104Z,67.42
2022-07-30T22:24:29.349Z,68.29
2022-07-30T22:27:11.078Z,69.80
2022-07-30T22:29:43.100Z,70.71
2022-07-30T22:32:10.094Z,71.75
2022-07-30T22:34:37.341Z,72.52
2022-07-30T22:37:03.798Z,71.83
2022-07-30T22:39:32.383Z,71.45
2022-07-30T22:42:16.967Z,71.50
2022-07-30T22:44:45.803Z,70.80
2022-07-30T22:47:20.917Z,71.43
2022-07-30T22:50:00.705Z,71.97
2022-07-30T22:52:27.531Z,72.44
2022-07-30T22:54:59.680Z,72.31
2022-07-30T22:57:37.568Z,72.72
2022-07-30T23:00:07.241Z,72.75
2022-07-30T23:02:37.696Z,74.06
2022-07-30T23:05:04.624Z,74.32
2022-07-30T23:07:38.103Z,74.31
2022-07-30T23:10:20.487Z,74.62
2022-07-30T23:12:53.591Z,75.30
2022-07-30T23:15:20.763Z,75.34
2022-07-30T23:17:47.845Z,75.14
2022-07-30T23:20:20.363Z,75.90
2022-07-30T23:22:47.055Z,76.10
2022-07-30T23:25:13.897Z,76.57
2022-07-30T23:27:41.367Z,76.34
2022-07-30T23:30:09.669Z,76.34
2022-07-30T23:32:36.678Z,76.67
2022-07-30T23:35:03.295Z,75.91
2022-07-30T23:37:29.761Z,75.71
2022-07-30T23:40:14.340Z,75.79
2022-07-30T23:42:40.805Z,75.52
2022-07-30T23:45:07.399Z,76.09
2022-07-30T23:47:49.567Z,76.32
2022-07-30T23:50:20.600Z,77.08
2022-07-30T23:52:47.143Z,77.22
2022-07-30T23:55:13.764Z,77.51
2022-07-30T23:57:40.152Z,77.30
